Time;durP1;ratioP1;P1;durP2;ratioP2;P2;SDS_P1;SDS_P2;PMS_P1;PMS_P2;Temp;Humidity;BMP_temperature;BMP_pressure;BME280_temperature;BME280_humidity;BME280_pressure;Samples;Min_cycle;Max_cycle;Signal;HPM_P1;HPM_P2
2022/01/18 00:00:04;;;;;;;12.07;3.95;;;;;;;;;;2050985;29;20187;-64
2022/01/18 00:01:04;;;;;;;14.13;4.90;;;;;;;;;;2047709;29;20179;-64
2022/01/18 00:02:05;;;;;;;14.38;4.38;;;;;;;;;;2049450;29;20527;-63
2022/01/18 00:03:05;;;;;;;9.80;4.55;;;;;;;;;;2050955;29;20263;-64
2022/01/18 00:04:06;;;;;;;10.63;4.63;;;;;;;;;;2057777;28;20193;-65
2022/01/18 00:05:13;;;;;;;18.08;5.18;;;;;;;;;;2057830;28;20673;-64
2022/01/18 00:06:13;;;;;;;12.35;4.50;;;;;;;;;;2047400;28;20270;-63
2022/01/18 00:07:13;;;;;;;11.30;4.72;;;;;;;;;;2047957;28;20207;-63
2022/01/18 00:08:15;;;;;;;17.00;5.32;;;;;;;;;;2050384;29;20190;-65
2022/01/18 00:09:18;;;;;;;17.42;5.30;;;;;;;;;;2050184;28;20171;-63
2022/01/18 00:10:19;;;;;;;16.80;5.15;;;;;;;;;;2050459;29;20222;-64
2022/01/18 00:11:22;;;;;;;14.35;4.38;;;;;;;;;;2049423;28;20179;-64
2022/01/18 00:13:57;;;;;;;17.30;5.43;;;;;;;;;;2022156;28;20551;-63
2022/01/18 00:15:29;;;;;;;17.90;5.22;;;;;;;;;;2050019;28;20187;-63
2022/01/18 00:16:37;;;;;;;13.47;5.03;;;;;;;;;;2049890;29;20214;-64
2022/01/18 00:17:41;;;;;;;17.90;5.82;;;;;;;;;;2050672;28;20593;-64
2022/01/18 00:18:41;;;;;;;15.32;5.00;;;;;;;;;;2052363;29;20171;-64
2022/01/18 00:19:45;;;;;;;19.23;5.83;;;;;;;;;;2051829;29;20269;-63
2022/01/18 00:21:00;;;;;;;16.67;4.87;;;;;;;;;;2050643;29;20174;-64
2022/01/18 00:22:14;;;;;;;12.60;5.03;;;;;;;;;;2050176;29;20234;-64
2022/01/18 00:23:14;;;;;;;19.55;5.32;;;;;;;;;;2049850;29;20185;-64
2022/01/18 00:24:15;;;;;;;17.27;5.90;;;;;;;;;;2049804;29;20182;-63
2022/01/18 00:25:17;;;;;;;16.55;5.18;;;;;;;;;;2058296;28;20185;-67
2022/01/18 00:26:18;;;;;;;19.73;5.57;;;;;;;;;;2049571;29;20183;-63
2022/01/18 00:27:18;;;;;;;13.15;5.57;;;;;;;;;;2050337;28;20617;-64
2022/01/18 00:28:20;;;;;;;15.88;4.70;;;;;;;;;;2050295;29;20183;-63
2022/01/18 00:29:23;;;;;;;15.63;5.22;;;;;;;;;;2053170;28;20182;-63
2022/01/18 00:30:54;;;;;;;10.63;4.75;;;;;;;;;;2049634;29;20225;-63
2022/01/18 00:32:01;;;;;;;16.48;5.43;;;;;;;;;;2048278;28;20255;-63
2022/01/18 00:33:16;;;;;;;13.60;4.90;;;;;;;;;;2045060;28;20188;-64
2022/01/18 00:34:27;;;;;;;12.70;4.80;;;;;;;;;;2055288;28;20615;-63
2022/01/18 00:35:32;;;;;;;22.15;5.53;;;;;;;;;;2049387;29;20177;-62
2022/01/18 00:37:35;;;;;;;13.48;4.38;;;;;;;;;;2050111;28;20175;-63
2022/01/18 00:38:14;;;;;;;16.27;5.27;;;;;;;;;;2042999;29;20193;-63
2022/01/18 00:39:14;;;;;;;16.43;5.77;;;;;;;;;;2042313;29;20168;-63
2022/01/18 00:40:15;;;;;;;12.35;5.30;;;;;;;;;;2046798;29;20263;-63
2022/01/18 00:41:16;;;;;;;15.32;5.63;;;;;;;;;;2047737;29;20203;-63
2022/01/18 00:42:16;;;;;;;19.98;5.47;;;;;;;;;;2046706;28;20174;-65
2022/01/18 00:43:18;;;;;;;12.02;5.07;;;;;;;;;;2042347;29;20172;-65
2022/01/18 00:44:19;;;;;;;19.98;5.55;;;;;;;;;;2047089;29;20187;-64
2022/01/18 00:45:19;;;;;;;12.93;5.38;;;;;;;;;;2049091;29;20167;-64
2022/01/18 00:46:20;;;;;;;20.02;5.60;;;;;;;;;;2044154;29;20228;-64
2022/01/18 00:47:20;;;;;;;18.05;5.45;;;;;;;;;;2054260;23;20203;-63
2022/01/18 00:48:20;;;;;;;12.32;5.15;;;;;;;;;;2040742;28;20212;-63
2022/01/18 00:49:21;;;;;;;12.07;5.60;;;;;;;;;;2046351;28;20192;-63
2022/01/18 00:50:21;;;;;;;17.60;5.78;;;;;;;;;;2043089;28;20188;-64
2022/01/18 00:51:22;;;;;;;16.67;5.87;;;;;;;;;;2054156;28;20257;-64
2022/01/18 00:52:23;;;;;;;19.23;5.40;;;;;;;;;;2051232;28;20731;-66
2022/01/18 00:53:25;;;;;;;13.68;5.68;;;;;;;;;;2048881;28;20273;-64
2022/01/18 00:54:33;;;;;;;15.23;5.95;;;;;;;;;;2047587;29;20195;-62
2022/01/18 00:55:36;;;;;;;13.27;6.40;;;;;;;;;;2047251;28;20246;-65
2022/01/18 00:56:40;;;;;;;14.65;5.60;;;;;;;;;;2051512;28;20257;-63
2022/01/18 00:57:41;;;;;;;17.92;5.47;;;;;;;;;;2048233;28;20214;-64
2022/01/18 00:58:42;;;;;;;15.23;5.93;;;;;;;;;;2049603;28;20656;-64
2022/01/18 00:59:44;;;;;;;18.45;5.72;;;;;;;;;;2048849;28;20266;-64
2022/01/18 01:00:44;;;;;;;18.90;6.07;;;;;;;;;;2048957;28;20254;-64
2022/01/18 01:01:44;;;;;;;17.45;5.55;;;;;;;;;;2048365;28;20170;-64
2022/01/18 01:02:45;;;;;;;18.42;6.45;;;;;;;;;;2048345;28;20591;-63
2022/01/18 01:03:45;;;;;;;16.23;6.65;;;;;;;;;;2048772;28;20601;-64
2022/01/18 01:04:50;;;;;;;17.58;5.97;;;;;;;;;;2047643;28;20249;-64
2022/01/18 01:05:50;;;;;;;14.73;6.68;;;;;;;;;;2045090;29;20497;-64
2022/01/18 01:06:50;;;;;;;16.88;6.57;;;;;;;;;;2048060;28;20672;-65
2022/01/18 01:07:50;;;;;;;13.43;6.30;;;;;;;;;;2049520;28;20242;-65
2022/01/18 01:08:51;;;;;;;13.95;5.95;;;;;;;;;;2048863;28;20235;-65
2022/01/18 01:09:51;;;;;;;17.73;6.05;;;;;;;;;;2048860;28;20187;-64
2022/01/18 01:10:52;;;;;;;14.07;5.65;;;;;;;;;;2048417;28;20193;-64
2022/01/18 01:11:52;;;;;;;15.02;5.30;;;;;;;;;;2048975;28;20266;-64
2022/01/18 01:12:54;;;;;;;18.83;5.75;;;;;;;;;;2048932;28;20640;-66
2022/01/18 01:13:55;;;;;;;13.10;5.03;;;;;;;;;;2048167;28;20273;-65
2022/01/18 01:15:03;;;;;;;10.85;5.38;;;;;;;;;;2049236;28;20198;-64
2022/01/18 01:16:34;;;;;;;9.77;5.20;;;;;;;;;;2048423;28;20249;-64
2022/01/18 01:17:49;;;;;;;21.40;5.38;;;;;;;;;;2048626;28;20270;-64
2022/01/18 01:34:40;;;;;;;12.20;5.43;;;;;;;;;;2049285;28;20427;-64
2022/01/18 01:36:00;;;;;;;11.80;5.10;;;;;;;;;;2048592;28;20363;-64
2022/01/18 01:41:43;;;;;;;18.37;4.80;;;;;;;;;;2048765;28;20559;-64
2022/01/18 01:42:54;;;;;;;10.73;5.07;;;;;;;;;;2047929;28;20195;-64
2022/01/18 01:44:08;;;;;;;14.73;4.80;;;;;;;;;;2045660;29;20546;-62
2022/01/18 01:45:10;;;;;;;12.77;4.70;;;;;;;;;;2048461;29;20178;-63
2022/01/18 01:46:10;;;;;;;17.23;5.03;;;;;;;;;;2048768;28;20202;-64
2022/01/18 01:47:12;;;;;;;14.50;5.32;;;;;;;;;;2047921;29;20266;-64
2022/01/18 01:48:13;;;;;;;16.55;5.25;;;;;;;;;;2049109;28;20187;-65
2022/01/18 01:49:14;;;;;;;14.40;5.33;;;;;;;;;;2048225;29;20205;-65
2022/01/18 01:50:20;;;;;;;16.85;5.47;;;;;;;;;;2048534;29;20190;-65
2022/01/18 01:51:21;;;;;;;17.65;5.63;;;;;;;;;;2045490;28;20699;-64
2022/01/18 01:52:22;;;;;;;10.87;5.20;;;;;;;;;;2054058;28;20656;-65
2022/01/18 01:53:24;;;;;;;13.57;5.22;;;;;;;;;;2055426;28;20237;-64
2022/01/18 01:54:24;;;;;;;12.37;4.67;;;;;;;;;;2048345;28;20175;-65
2022/01/18 01:55:25;;;;;;;13.50;4.87;;;;;;;;;;2047799;28;20651;-62
2022/01/18 01:56:25;;;;;;;13.50;5.47;;;;;;;;;;2047949;29;20812;-64
2022/01/18 01:57:26;;;;;;;14.35;4.85;;;;;;;;;;2048312;28;20175;-63
2022/01/18 01:58:27;;;;;;;16.95;4.97;;;;;;;;;;2056469;28;20261;-65
2022/01/18 01:59:27;;;;;;;16.85;5.70;;;;;;;;;;2055879;28;20170;-62
2022/01/18 02:00:41;;;;;;;18.45;5.53;;;;;;;;;;2048513;29;20215;-64
2022/01/18 02:01:43;;;;;;;14.63;5.05;;;;;;;;;;2047963;28;20675;-65
2022/01/18 02:02:44;;;;;;;16.35;5.85;;;;;;;;;;2047720;28;20608;-63
2022/01/18 02:03:44;;;;;;;13.40;5.35;;;;;;;;;;2047823;29;20183;-64
2022/01/18 02:04:45;;;;;;;15.82;5.03;;;;;;;;;;2047745;29;20563;-64
2022/01/18 02:05:45;;;;;;;11.43;5.20;;;;;;;;;;2041715;28;20188;-64
2022/01/18 02:06:46;;;;;;;20.17;5.80;;;;;;;;;;2047488;29;20182;-65
2022/01/18 02:07:46;;;;;;;12.20;4.90;;;;;;;;;;2048500;28;20215;-66
2022/01/18 02:08:46;;;;;;;12.68;5.10;;;;;;;;;;2047620;29;20183;-65
2022/01/18 02:09:46;;;;;;;10.10;4.93;;;;;;;;;;2048460;29;20179;-64
2022/01/18 02:10:47;;;;;;;15.23;5.43;;;;;;;;;;2048552;29;20169;-64
2022/01/18 02:11:47;;;;;;;13.93;5.22;;;;;;;;;;2041976;29;20187;-63
2022/01/18 02:12:47;;;;;;;14.05;5.63;;;;;;;;;;2047783;29;20632;-62
2022/01/18 02:13:49;;;;;;;12.70;4.70;;;;;;;;;;2048579;29;20199;-64
2022/01/18 02:14:56;;;;;;;12.30;4.80;;;;;;;;;;2048287;28;20306;-64
2022/01/18 02:22:17;;;;;;;21.83;6.38;;;;;;;;;;2048198;28;20179;-63
2022/01/18 02:23:18;;;;;;;13.73;5.40;;;;;;;;;;2048746;29;20194;-64
2022/01/18 02:24:19;;;;;;;12.68;5.63;;;;;;;;;;2048818;28;20182;-64
2022/01/18 02:25:20;;;;;;;17.05;6.00;;;;;;;;;;2046932;29;20181;-63
2022/01/18 02:26:20;;;;;;;16.17;6.07;;;;;;;;;;2048793;28;20640;-64
2022/01/18 02:27:20;;;;;;;11.88;5.70;;;;;;;;;;2049091;28;20552;-64
2022/01/18 02:28:22;;;;;;;17.05;5.55;;;;;;;;;;2048169;29;20187;-65
2022/01/18 02:29:23;;;;;;;14.30;5.80;;;;;;;;;;2048327;28;20194;-66
2022/01/18 02:30:23;;;;;;;13.52;6.22;;;;;;;;;;2048020;28;20577;-65
2022/01/18 02:31:23;;;;;;;11.35;6.07;;;;;;;;;;2048157;28;20543;-65
2022/01/18 02:32:23;;;;;;;18.88;5.90;;;;;;;;;;2054673;28;20653;-65
2022/01/18 02:33:24;;;;;;;17.83;5.90;;;;;;;;;;2055737;28;20720;-65
2022/01/18 02:34:24;;;;;;;22.42;6.72;;;;;;;;;;2046240;29;20646;-64
2022/01/18 02:35:24;;;;;;;17.48;6.35;;;;;;;;;;2047736;29;20243;-64
2022/01/18 02:36:25;;;;;;;19.15;6.30;;;;;;;;;;2048721;29;20760;-64
2022/01/18 02:37:25;;;;;;;14.60;7.18;;;;;;;;;;2047259;28;20600;-64
2022/01/18 02:38:25;;;;;;;16.17;6.55;;;;;;;;;;2048079;29;20273;-65
2022/01/18 02:39:27;;;;;;;20.50;6.82;;;;;;;;;;2048762;28;20171;-65
2022/01/18 02:40:27;;;;;;;16.08;6.53;;;;;;;;;;2047266;29;20209;-65
2022/01/18 02:41:31;;;;;;;14.50;6.57;;;;;;;;;;2047837;29;20191;-65
2022/01/18 02:42:41;;;;;;;13.20;6.78;;;;;;;;;;2047903;28;20635;-66
2022/01/18 02:43:47;;;;;;;11.27;6.10;;;;;;;;;;2045192;29;20181;-64
2022/01/18 02:44:49;;;;;;;18.35;6.93;;;;;;;;;;2047625;29;20187;-61
2022/01/18 02:45:50;;;;;;;9.95;6.15;;;;;;;;;;2048614;28;20254;-66
2022/01/18 02:46:50;;;;;;;14.27;7.32;;;;;;;;;;2047215;28;20671;-65
2022/01/18 02:47:50;;;;;;;11.75;5.97;;;;;;;;;;2047597;28;20200;-65
2022/01/18 02:48:51;;;;;;;19.23;6.25;;;;;;;;;;2048247;29;20171;-65
2022/01/18 02:49:51;;;;;;;15.43;6.57;;;;;;;;;;2048299;28;20230;-64
2022/01/18 02:50:52;;;;;;;16.08;6.15;;;;;;;;;;2048218;28;20557;-63
2022/01/18 02:51:52;;;;;;;16.70;6.78;;;;;;;;;;2048269;28;20222;-64
2022/01/18 02:52:52;;;;;;;10.13;6.28;;;;;;;;;;2047267;28;20242;-63
2022/01/18 02:53:57;;;;;;;15.30;6.38;;;;;;;;;;2048571;29;20171;-63
2022/01/18 02:54:57;;;;;;;13.85;6.72;;;;;;;;;;2048173;28;20174;-65
2022/01/18 02:55:58;;;;;;;10.63;6.75;;;;;;;;;;2048694;28;20571;-65
2022/01/18 02:57:01;;;;;;;14.17;7.30;;;;;;;;;;2048151;28;20171;-64
2022/01/18 02:58:06;;;;;;;17.20;7.57;;;;;;;;;;2048797;28;20195;-64
2022/01/18 03:00:19;;;;;;;14.48;6.43;;;;;;;;;;2049763;28;20593;-64
2022/01/18 03:03:56;;;;;;;17.73;7.70;;;;;;;;;;2054953;28;20329;-64
2022/01/18 03:04:57;;;;;;;15.30;6.38;;;;;;;;;;2046373;28;20178;-63
2022/01/18 03:05:57;;;;;;;12.73;7.15;;;;;;;;;;2049856;28;20698;-64
2022/01/18 03:06:58;;;;;;;14.57;6.65;;;;;;;;;;2049687;28;20258;-65
2022/01/18 03:07:58;;;;;;;19.23;7.32;;;;;;;;;;2049635;28;20210;-64
2022/01/18 03:08:59;;;;;;;15.55;6.75;;;;;;;;;;2049735;28;20183;-63
2022/01/18 03:09:59;;;;;;;16.55;7.80;;;;;;;;;;2050088;28;20178;-65
2022/01/18 03:11:00;;;;;;;17.73;6.47;;;;;;;;;;2049666;28;20224;-64
2022/01/18 03:12:01;;;;;;;12.18;6.05;;;;;;;;;;2057003;28;20179;-63
2022/01/18 03:13:01;;;;;;;13.25;6.07;;;;;;;;;;2056574;28;20201;-66
2022/01/18 03:14:02;;;;;;;16.23;6.65;;;;;;;;;;2049974;28;20247;-64
2022/01/18 03:15:03;;;;;;;14.57;6.53;;;;;;;;;;2049983;28;20175;-64
2022/01/18 03:16:03;;;;;;;12.88;5.72;;;;;;;;;;2049616;28;20191;-65
2022/01/18 03:17:04;;;;;;;18.05;6.10;;;;;;;;;;2049599;28;20217;-65
2022/01/18 03:18:06;;;;;;;16.17;6.45;;;;;;;;;;2049514;28;20187;-64
2022/01/18 03:19:07;;;;;;;15.90;6.27;;;;;;;;;;2050068;28;20177;-65
2022/01/18 03:20:11;;;;;;;16.80;5.80;;;;;;;;;;2050277;28;20249;-63
2022/01/18 03:21:11;;;;;;;14.90;5.63;;;;;;;;;;2050458;28;20175;-63
2022/01/18 03:22:12;;;;;;;12.68;5.93;;;;;;;;;;2050123;28;20183;-65
2022/01/18 03:23:18;;;;;;;12.63;5.78;;;;;;;;;;2050782;28;20200;-65
2022/01/18 03:26:33;;;;;;;15.55;5.97;;;;;;;;;;2050045;28;20167;-60
2022/01/18 03:28:52;;;;;;;12.88;6.63;;;;;;;;;;2050411;28;20159;-64
2022/01/18 03:29:52;;;;;;;10.73;5.85;;;;;;;;;;2050316;29;20171;-62
2022/01/18 03:30:58;;;;;;;8.23;5.97;;;;;;;;;;2046865;29;20187;-62
2022/01/18 03:31:58;;;;;;;12.77;5.40;;;;;;;;;;2041681;29;20164;-63
2022/01/18 03:32:58;;;;;;;11.25;5.47;;;;;;;;;;2042152;29;20184;-64
2022/01/18 03:33:58;;;;;;;14.07;6.15;;;;;;;;;;2045403;29;20194;-62
2022/01/18 03:34:58;;;;;;;17.45;6.30;;;;;;;;;;2050243;29;20189;-63
2022/01/18 03:35:59;;;;;;;13.77;5.70;;;;;;;;;;2050402;29;20178;-66
2022/01/18 03:36:59;;;;;;;15.07;6.00;;;;;;;;;;2050331;29;20187;-63
2022/01/18 03:38:00;;;;;;;15.25;5.72;;;;;;;;;;2045686;28;20208;-64
2022/01/18 03:39:00;;;;;;;13.67;6.30;;;;;;;;;;2043986;29;20175;-64
2022/01/18 03:40:00;;;;;;;16.83;6.78;;;;;;;;;;2040417;28;20890;-62
2022/01/18 03:41:01;;;;;;;15.48;5.70;;;;;;;;;;2046112;29;20176;-62
2022/01/18 03:43:21;;;;;;;11.50;5.95;;;;;;;;;;2046468;29;20167;-63
2022/01/18 03:44:22;;;;;;;18.20;5.90;;;;;;;;;;2047811;29;20210;-65
2022/01/18 03:45:29;;;;;;;16.15;5.90;;;;;;;;;;2049649;28;20175;-65
2022/01/18 03:46:31;;;;;;;17.90;6.00;;;;;;;;;;2049260;28;20246;-63
2022/01/18 03:47:32;;;;;;;17.13;6.50;;;;;;;;;;2049766;29;20202;-64
2022/01/18 03:48:36;;;;;;;17.33;6.40;;;;;;;;;;2050265;28;20254;-64
2022/01/18 03:49:36;;;;;;;19.17;6.00;;;;;;;;;;2048971;29;20182;-63
2022/01/18 03:50:36;;;;;;;20.02;6.60;;;;;;;;;;2049713;29;20171;-63
2022/01/18 03:51:38;;;;;;;20.17;6.15;;;;;;;;;;2045739;29;20298;-62
2022/01/18 03:52:39;;;;;;;11.30;5.53;;;;;;;;;;2049952;29;20167;-64
2022/01/18 03:53:39;;;;;;;12.88;6.03;;;;;;;;;;2049792;28;20199;-63
2022/01/18 03:54:43;;;;;;;23.10;6.88;;;;;;;;;;2050242;28;20171;-64
2022/01/18 03:55:43;;;;;;;17.33;6.25;;;;;;;;;;2049660;28;20202;-63
2022/01/18 03:56:44;;;;;;;15.38;5.65;;;;;;;;;;2050357;29;20215;-62
2022/01/18 03:57:44;;;;;;;14.77;5.80;;;;;;;;;;2049720;29;20243;-62
2022/01/18 03:58:44;;;;;;;14.38;6.55;;;;;;;;;;2050298;28;20591;-64
2022/01/18 03:59:45;;;;;;;14.60;6.53;;;;;;;;;;2050142;29;20178;-65
2022/01/18 04:00:46;;;;;;;17.20;6.45;;;;;;;;;;2050327;28;20163;-62
2022/01/18 04:01:46;;;;;;;15.75;7.03;;;;;;;;;;2050024;28;20682;-64
2022/01/18 04:02:47;;;;;;;17.90;7.40;;;;;;;;;;2049087;29;20174;-64
2022/01/18 04:03:47;;;;;;;20.70;7.28;;;;;;;;;;2049345;29;20175;-63
2022/01/18 04:04:48;;;;;;;20.90;6.93;;;;;;;;;;2043776;29;20278;-61
2022/01/18 04:05:48;;;;;;;24.67;6.75;;;;;;;;;;2049512;29;20175;-64
2022/01/18 04:06:48;;;;;;;15.70;6.68;;;;;;;;;;2050270;29;20218;-61
2022/01/18 04:07:48;;;;;;;18.20;7.80;;;;;;;;;;2049930;28;20226;-63
2022/01/18 04:08:49;;;;;;;15.75;6.55;;;;;;;;;;2050142;28;20175;-63
2022/01/18 04:09:49;;;;;;;17.75;7.07;;;;;;;;;;2049289;28;20174;-64
2022/01/18 04:10:49;;;;;;;17.65;8.40;;;;;;;;;;2050173;28;20174;-63
2022/01/18 04:11:49;;;;;;;19.83;8.40;;;;;;;;;;2050083;28;20179;-63
2022/01/18 04:12:50;;;;;;;18.63;7.47;;;;;;;;;;2049943;28;20163;-65
2022/01/18 04:13:50;;;;;;;19.77;7.50;;;;;;;;;;2049992;28;20218;-63
2022/01/18 04:14:50;;;;;;;17.73;6.25;;;;;;;;;;2050072;28;20175;-63
2022/01/18 04:15:51;;;;;;;24.17;9.37;;;;;;;;;;2049817;28;20262;-64
2022/01/18 04:19:22;;;;;;;21.80;9.45;;;;;;;;;;2049916;29;20187;-64
2022/01/18 04:25:53;;;;;;;28.85;8.73;;;;;;;;;;2049850;28;20299;-62
2022/01/18 04:26:57;;;;;;;28.35;8.70;;;;;;;;;;2050098;28;20159;-63
2022/01/18 04:28:03;;;;;;;25.85;8.77;;;;;;;;;;2050014;28;20667;-63
2022/01/18 04:29:06;;;;;;;20.60;8.70;;;;;;;;;;2049981;29;20536;-62
2022/01/18 04:30:07;;;;;;;21.20;9.32;;;;;;;;;;2049754;29;20179;-64
2022/01/18 04:31:07;;;;;;;24.00;8.93;;;;;;;;;;2050108;28;20179;-63
2022/01/18 04:32:08;;;;;;;23.85;8.45;;;;;;;;;;2049759;28;20212;-62
2022/01/18 04:33:08;;;;;;;22.60;8.38;;;;;;;;;;2049866;28;20210;-63
2022/01/18 04:34:08;;;;;;;22.52;8.70;;;;;;;;;;2049935;28;20250;-63
2022/01/18 04:35:09;;;;;;;21.17;8.27;;;;;;;;;;2057340;28;20178;-64
2022/01/18 04:36:09;;;;;;;21.15;9.23;;;;;;;;;;2048162;29;20174;-64
2022/01/18 04:37:09;;;;;;;24.23;8.73;;;;;;;;;;2042684;29;20179;-64
2022/01/18 04:38:10;;;;;;;19.10;8.15;;;;;;;;;;2042013;29;20192;-63
2022/01/18 04:39:10;;;;;;;26.58;9.02;;;;;;;;;;2041386;29;20271;-62
2022/01/18 04:40:15;;;;;;;24.73;9.25;;;;;;;;;;2041576;29;20266;-63
2022/01/18 04:41:18;;;;;;;20.57;8.43;;;;;;;;;;2054919;28;20186;-65
2022/01/18 04:43:00;;;;;;;19.83;8.60;;;;;;;;;;2049653;28;20237;-64
2022/01/18 04:48:41;;;;;;;30.17;8.30;;;;;;;;;;2050001;28;20795;-61
2022/01/18 04:49:41;;;;;;;21.40;8.77;;;;;;;;;;2049701;28;20167;-64
2022/01/18 04:50:42;;;;;;;22.77;9.37;;;;;;;;;;2049948;28;20185;-64
2022/01/18 04:51:44;;;;;;;26.60;9.25;;;;;;;;;;2049338;28;20174;-62
2022/01/18 04:52:44;;;;;;;21.75;8.02;;;;;;;;;;2049893;28;20187;-64
2022/01/18 04:53:51;;;;;;;27.30;9.77;;;;;;;;;;2049720;28;20206;-63
2022/01/18 04:54:59;;;;;;;30.10;9.90;;;;;;;;;;2050027;28;20258;-64
2022/01/18 04:56:03;;;;;;;22.97;8.60;;;;;;;;;;2049655;28;20175;-62
2022/01/18 04:58:04;;;;;;;28.65;9.18;;;;;;;;;;2049596;28;20695;-64
2022/01/18 04:59:08;;;;;;;29.65;9.18;;;;;;;;;;2049585;28;20258;-64
2022/01/18 05:00:09;;;;;;;25.57;8.00;;;;;;;;;;2041830;29;20199;-64
2022/01/18 05:01:10;;;;;;;30.03;9.43;;;;;;;;;;2041768;29;20183;-64
2022/01/18 05:02:10;;;;;;;22.98;9.02;;;;;;;;;;2041561;29;20195;-60
2022/01/18 05:03:10;;;;;;;26.87;9.50;;;;;;;;;;2041870;29;20163;-64
2022/01/18 05:04:10;;;;;;;23.88;7.85;;;;;;;;;;2043117;29;20191;-64
2022/01/18 05:05:18;;;;;;;23.38;8.75;;;;;;;;;;2049901;28;20171;-65
2022/01/18 05:06:19;;;;;;;21.67;9.20;;;;;;;;;;2049466;29;20771;-63
2022/01/18 05:07:20;;;;;;;32.63;9.77;;;;;;;;;;2049750;29;20179;-64
2022/01/18 05:08:21;;;;;;;27.20;8.70;;;;;;;;;;2049402;29;20544;-63
2022/01/18 05:09:21;;;;;;;31.70;9.47;;;;;;;;;;2049737;28;20212;-63
2022/01/18 05:10:23;;;;;;;29.65;9.43;;;;;;;;;;2057026;28;20206;-61
2022/01/18 05:11:26;;;;;;;25.52;9.23;;;;;;;;;;2056822;28;20623;-64
2022/01/18 05:12:40;;;;;;;33.38;8.80;;;;;;;;;;2049224;29;20656;-63
2022/01/18 05:14:11;;;;;;;21.13;8.20;;;;;;;;;;2049461;29;20191;-63
2022/01/18 05:15:40;;;;;;;24.90;8.18;;;;;;;;;;2041743;29;20251;-61
2022/01/18 05:17:58;;;;;;;31.40;8.80;;;;;;;;;;2049619;28;20223;-63
2022/01/18 05:20:38;;;;;;;25.02;9.15;;;;;;;;;;2049552;29;20629;-65
2022/01/18 05:22:56;;;;;;;26.75;8.75;;;;;;;;;;2046181;28;20211;-64
2022/01/18 05:23:02;;;;;;;32.55;9.27;;;;;;;;;;2042704;29;20167;-63
2022/01/18 05:24:03;;;;;;;29.55;8.52;;;;;;;;;;2048752;28;20255;-64
2022/01/18 05:25:03;;;;;;;23.15;9.55;;;;;;;;;;2048424;28;20242;-64
2022/01/18 05:26:04;;;;;;;25.98;7.97;;;;;;;;;;2048721;29;20217;-62
2022/01/18 05:27:04;;;;;;;28.23;8.95;;;;;;;;;;2048481;28;20194;-63
2022/01/18 05:28:06;;;;;;;28.85;9.95;;;;;;;;;;2048469;28;20199;-63
2022/01/18 05:29:06;;;;;;;23.42;8.80;;;;;;;;;;2047277;29;20186;-65
2022/01/18 05:30:06;;;;;;;25.00;8.38;;;;;;;;;;2048046;29;20175;-65
2022/01/18 05:31:07;;;;;;;28.85;9.00;;;;;;;;;;2049329;29;20257;-63
2022/01/18 05:32:07;;;;;;;26.95;8.68;;;;;;;;;;2048879;28;20167;-63
2022/01/18 05:33:08;;;;;;;29.65;9.00;;;;;;;;;;2048524;28;20183;-63
2022/01/18 05:34:08;;;;;;;26.65;8.02;;;;;;;;;;2049079;28;20549;-64
2022/01/18 05:35:08;;;;;;;27.38;8.65;;;;;;;;;;2048764;28;20166;-63
2022/01/18 05:36:09;;;;;;;26.40;9.60;;;;;;;;;;2046308;28;20178;-62
2022/01/18 05:37:10;;;;;;;27.05;9.05;;;;;;;;;;2049394;28;20644;-63
2022/01/18 05:38:10;;;;;;;26.08;8.75;;;;;;;;;;2048580;28;20194;-59
2022/01/18 05:39:11;;;;;;;27.77;9.20;;;;;;;;;;2048768;28;20246;-63
2022/01/18 05:40:11;;;;;;;24.80;9.33;;;;;;;;;;2048588;28;20197;-64
2022/01/18 05:41:12;;;;;;;31.98;8.70;;;;;;;;;;2048029;28;20695;-64
2022/01/18 05:42:13;;;;;;;27.02;8.35;;;;;;;;;;2049973;28;20266;-65
2022/01/18 05:43:13;;;;;;;26.30;8.77;;;;;;;;;;2050235;28;20190;-65
2022/01/18 05:44:13;;;;;;;27.33;7.85;;;;;;;;;;2051779;29;20183;-64
2022/01/18 05:45:13;;;;;;;34.65;9.57;;;;;;;;;;2054552;28;20269;-64
2022/01/18 05:46:14;;;;;;;37.03;9.90;;;;;;;;;;2053162;28;20186;-63
2022/01/18 05:47:14;;;;;;;28.95;8.60;;;;;;;;;;2050507;29;20187;-64
2022/01/18 05:48:14;;;;;;;25.30;7.60;;;;;;;;;;2051523;29;20214;-64
2022/01/18 05:49:14;;;;;;;25.52;7.93;;;;;;;;;;2049658;28;20691;-64
2022/01/18 05:50:14;;;;;;;25.55;8.80;;;;;;;;;;2049499;28;20671;-63
2022/01/18 05:51:15;;;;;;;27.38;8.55;;;;;;;;;;2049161;28;20167;-64
2022/01/18 05:52:15;;;;;;;24.65;8.35;;;;;;;;;;2048537;28;20183;-61
2022/01/18 05:53:15;;;;;;;21.45;8.38;;;;;;;;;;2056564;28;20220;-64
2022/01/18 05:54:16;;;;;;;25.13;7.85;;;;;;;;;;2056111;28;20178;-61
2022/01/18 05:55:16;;;;;;;24.88;8.18;;;;;;;;;;2049490;28;20605;-61
2022/01/18 05:56:16;;;;;;;26.98;8.25;;;;;;;;;;2048458;28;20170;-65
2022/01/18 05:57:17;;;;;;;24.92;8.95;;;;;;;;;;2049228;28;20185;-63
2022/01/18 05:58:17;;;;;;;32.35;8.57;;;;;;;;;;2048338;28;20610;-64
2022/01/18 05:59:23;;;;;;;28.50;7.97;;;;;;;;;;2048826;28;20201;-63
2022/01/18 06:00:24;;;;;;;27.92;8.35;;;;;;;;;;2048786;28;20187;-65
2022/01/18 06:01:27;;;;;;;28.90;7.60;;;;;;;;;;2049101;28;20182;-62
2022/01/18 06:02:41;;;;;;;19.05;7.20;;;;;;;;;;2049378;28;20183;-63
2022/01/18 06:04:09;;;;;;;30.50;8.98;;;;;;;;;;2049731;28;20163;-64
2022/01/18 06:07:47;;;;;;;24.33;8.00;;;;;;;;;;2049680;28;20210;-59
2022/01/18 06:08:48;;;;;;;19.70;6.95;;;;;;;;;;2050640;29;20163;-57
2022/01/18 06:09:48;;;;;;;28.17;8.15;;;;;;;;;;2055259;28;20177;-63
2022/01/18 06:10:49;;;;;;;25.38;7.18;;;;;;;;;;2050561;28;20525;-62
2022/01/18 06:11:49;;;;;;;21.70;6.97;;;;;;;;;;2050700;28;20656;-63
2022/01/18 06:12:50;;;;;;;21.27;7.80;;;;;;;;;;2049588;28;20167;-61
2022/01/18 06:13:50;;;;;;;25.90;7.67;;;;;;;;;;2055263;28;20245;-64
2022/01/18 06:14:50;;;;;;;22.42;7.05;;;;;;;;;;2050440;28;20177;-65
2022/01/18 06:15:51;;;;;;;24.50;7.72;;;;;;;;;;2050695;28;20164;-65
2022/01/18 06:16:51;;;;;;;32.15;8.25;;;;;;;;;;2049315;28;20195;-66
2022/01/18 06:17:51;;;;;;;21.23;7.00;;;;;;;;;;2050067;28;20614;-63
2022/01/18 06:18:51;;;;;;;25.00;8.05;;;;;;;;;;2049428;28;20218;-62
2022/01/18 06:19:51;;;;;;;21.10;7.63;;;;;;;;;;2049117;29;20175;-64
2022/01/18 06:20:53;;;;;;;29.00;8.20;;;;;;;;;;2048434;28;20163;-63
2022/01/18 06:21:53;;;;;;;22.60;7.60;;;;;;;;;;2046415;28;20180;-65
2022/01/18 06:22:53;;;;;;;26.48;8.25;;;;;;;;;;2048219;28;20652;-65
2022/01/18 06:23:53;;;;;;;19.85;7.15;;;;;;;;;;2048280;28;20217;-64
2022/01/18 06:24:54;;;;;;;24.65;7.60;;;;;;;;;;2048154;29;20190;-65
2022/01/18 06:25:54;;;;;;;24.52;9.02;;;;;;;;;;2046641;28;20187;-65
2022/01/18 06:26:54;;;;;;;25.55;7.75;;;;;;;;;;2047936;29;20193;-59
2022/01/18 06:27:54;;;;;;;23.60;8.15;;;;;;;;;;2049032;28;20194;-62
2022/01/18 06:28:55;;;;;;;28.50;7.82;;;;;;;;;;2045203;28;20211;-60
2022/01/18 06:29:55;;;;;;;20.27;7.70;;;;;;;;;;2048465;28;20265;-62
2022/01/18 06:30:55;;;;;;;27.58;7.95;;;;;;;;;;2048067;28;20202;-64
2022/01/18 06:31:56;;;;;;;21.95;8.20;;;;;;;;;;2047667;29;20855;-64
2022/01/18 06:32:56;;;;;;;30.80;7.15;;;;;;;;;;2047525;29;20667;-65
2022/01/18 06:33:56;;;;;;;19.67;7.22;;;;;;;;;;2047792;28;20552;-61
2022/01/18 06:34:56;;;;;;;26.42;8.05;;;;;;;;;;2048278;29;20190;-63
2022/01/18 06:35:57;;;;;;;27.25;8.63;;;;;;;;;;2048167;29;20229;-62
2022/01/18 06:36:57;;;;;;;31.27;8.80;;;;;;;;;;2048645;29;20171;-66
2022/01/18 06:37:57;;;;;;;26.13;9.10;;;;;;;;;;2048583;28;20234;-66
2022/01/18 06:38:57;;;;;;;28.75;8.90;;;;;;;;;;2047343;28;20182;-64
2022/01/18 06:39:59;;;;;;;23.52;7.97;;;;;;;;;;2048169;29;20667;-55
2022/01/18 06:40:59;;;;;;;24.20;8.45;;;;;;;;;;2048137;28;20175;-60
2022/01/18 06:42:00;;;;;;;21.55;8.05;;;;;;;;;;2047967;29;20197;-61
2022/01/18 06:43:00;;;;;;;25.85;8.02;;;;;;;;;;2047616;29;20178;-60
2022/01/18 06:44:00;;;;;;;29.00;8.23;;;;;;;;;;2048870;29;20167;-57
2022/01/18 06:45:00;;;;;;;30.00;8.23;;;;;;;;;;2048417;28;20189;-62
2022/01/18 06:46:01;;;;;;;19.25;8.48;;;;;;;;;;2048890;28;20644;-60
2022/01/18 06:47:01;;;;;;;23.23;8.93;;;;;;;;;;2048954;28;20167;-62
2022/01/18 06:48:01;;;;;;;31.27;10.38;;;;;;;;;;2074505;23;20613;-61
2022/01/18 06:49:01;;;;;;;30.00;10.43;;;;;;;;;;2060531;28;20257;-60
2022/01/18 06:50:03;;;;;;;26.83;9.10;;;;;;;;;;2056154;28;20209;-62
2022/01/18 06:51:03;;;;;;;22.13;8.87;;;;;;;;;;2056733;28;20189;-62
2022/01/18 06:52:03;;;;;;;28.52;9.80;;;;;;;;;;2057154;28;20182;-60
2022/01/18 06:53:07;;;;;;;23.83;10.90;;;;;;;;;;2058490;28;20229;-61
2022/01/18 06:54:13;;;;;;;28.02;10.25;;;;;;;;;;2058355;28;20689;-61
2022/01/18 06:55:14;;;;;;;29.77;11.73;;;;;;;;;;2056570;28;20155;-64
2022/01/18 06:56:20;;;;;;;27.77;11.20;;;;;;;;;;2057652;28;20240;-62
2022/01/18 06:57:20;;;;;;;26.83;10.90;;;;;;;;;;2055743;28;20182;-60
2022/01/18 06:58:20;;;;;;;36.00;11.05;;;;;;;;;;2055030;28;20202;-64
2022/01/18 06:59:21;;;;;;;32.40;10.75;;;;;;;;;;2053300;28;20198;-61
2022/01/18 07:00:22;;;;;;;27.65;10.32;;;;;;;;;;2056510;28;20178;-59
2022/01/18 07:01:22;;;;;;;27.27;10.65;;;;;;;;;;2056633;28;20516;-65
2022/01/18 07:02:23;;;;;;;35.03;10.97;;;;;;;;;;2057237;28;20190;-60
2022/01/18 07:03:23;;;;;;;30.95;10.63;;;;;;;;;;2056548;28;20221;-61